sensor_id;sensor_type;location;lat;lon;timestamp;temperature;humidity
17571;DHT22;8903;52.220;20.978;2023-05-16T00:01:58;12.10;99.90
17571;DHT22;8903;52.220;20.978;2023-05-16T00:04:26;12.10;99.90
17571;DHT22;8903;52.220;20.978;2023-05-16T00:06:53;12.10;99.90
17571;DHT22;8903;52.220;20.978;2023-05-16T00:09:20;12.10;99.90
17571;DHT22;8903;52.220;20.978;2023-05-16T00:15:28;12.10;99.90
17571;DHT22;8903;52.220;20.978;2023-05-16T00:17:55;12.10;99.90
17571;DHT22;8903;52.220;20.978;2023-05-16T00:20:25;12.10;99.90
17571;DHT22;8903;52.220;20.978;2023-05-16T00:22:53;12.10;99.90
17571;DHT22;8903;52.220;20.978;2023-05-16T00:25:22;12.20;99.90
17571;DHT22;8903;52.220;20.978;2023-05-16T00:27:49;12.10;99.90
17571;DHT22;8903;52.220;20.978;2023-05-16T00:30:16;12.20;99.90
17571;DHT22;8903;52.220;20.978;2023-05-16T00:32:43;12.20;99.90
17571;DHT22;8903;52.220;20.978;2023-05-16T00:35:10;12.20;99.90
17571;DHT22;8903;52.220;20.978;2023-05-16T00:37:39;12.20;99.90
17571;DHT22;8903;52.220;20.978;2023-05-16T00:40:07;12.20;99.90
17571;DHT22;8903;52.220;20.978;2023-05-16T00:42:35;12.20;99.90
17571;DHT22;8903;52.220;20.978;2023-05-16T00:45:03;12.20;99.90
17571;DHT22;8903;52.220;20.978;2023-05-16T00:47:30;12.20;99.90
17571;DHT22;8903;52.220;20.978;2023-05-16T00:49:58;12.20;99.90
17571;DHT22;8903;52.220;20.978;2023-05-16T00:52:25;12.20;99.90
17571;DHT22;8903;52.220;20.978;2023-05-16T00:54:53;12.20;99.90
17571;DHT22;8903;52.220;20.978;2023-05-16T00:57:21;12.20;99.90
17571;DHT22;8903;52.220;20.978;2023-05-16T00:59:48;12.20;99.90
17571;DHT22;8903;52.220;20.978;2023-05-16T01:02:16;12.20;99.90
17571;DHT22;8903;52.220;20.978;2023-05-16T01:04:45;12.20;99.90
17571;DHT22;8903;52.220;20.978;2023-05-16T01:07:13;12.20;99.90
17571;DHT22;8903;52.220;20.978;2023-05-16T01:09:40;12.20;99.90
17571;DHT22;8903;52.220;20.978;2023-05-16T01:12:14;12.20;99.90
17571;DHT22;8903;52.220;20.978;2023-05-16T01:14:50;12.30;99.90
17571;DHT22;8903;52.220;20.978;2023-05-16T01:17:28;12.30;99.90
17571;DHT22;8903;52.220;20.978;2023-05-16T01:20:04;12.30;99.90
17571;DHT22;8903;52.220;20.978;2023-05-16T01:22:43;12.20;99.90
17571;DHT22;8903;52.220;20.978;2023-05-16T01:25:29;12.20;99.90
17571;DHT22;8903;52.220;20.978;2023-05-16T01:28:00;12.20;99.90
17571;DHT22;8903;52.220;20.978;2023-05-16T01:30:32;12.20;99.90
17571;DHT22;8903;52.220;20.978;2023-05-16T01:33:00;12.20;99.90
17571;DHT22;8903;52.220;20.978;2023-05-16T01:35:27;12.20;99.90
17571;DHT22;8903;52.220;20.978;2023-05-16T01:37:59;12.20;99.90
17571;DHT22;8903;52.220;20.978;2023-05-16T01:40:33;12.20;99.90
17571;DHT22;8903;52.220;20.978;2023-05-16T01:43:06;12.20;99.90
17571;DHT22;8903;52.220;20.978;2023-05-16T01:45:39;12.20;99.90
17571;DHT22;8903;52.220;20.978;2023-05-16T01:48:15;12.20;99.90
17571;DHT22;8903;52.220;20.978;2023-05-16T01:50:48;12.20;99.90
17571;DHT22;8903;52.220;20.978;2023-05-16T01:53:21;12.30;99.90
17571;DHT22;8903;52.220;20.978;2023-05-16T01:55:51;12.20;99.90
17571;DHT22;8903;52.220;20.978;2023-05-16T01:58:21;12.30;99.90
17571;DHT22;8903;52.220;20.978;2023-05-16T02:00:49;12.20;99.90
17571;DHT22;8903;52.220;20.978;2023-05-16T02:03:18;12.20;99.90
17571;DHT22;8903;52.220;20.978;2023-05-16T02:05:45;12.20;99.90
17571;DHT22;8903;52.220;20.978;2023-05-16T02:08:13;12.20;99.90
17571;DHT22;8903;52.220;20.978;2023-05-16T02:10:40;12.10;99.90
17571;DHT22;8903;52.220;20.978;2023-05-16T02:13:07;12.10;99.90
17571;DHT22;8903;52.220;20.978;2023-05-16T02:15:36;12.10;99.90
17571;DHT22;8903;52.220;20.978;2023-05-16T02:18:03;12.10;99.90
17571;DHT22;8903;52.220;20.978;2023-05-16T02:20:31;12.10;99.90
17571;DHT22;8903;52.220;20.978;2023-05-16T02:23:00;12.10;99.90
17571;DHT22;8903;52.220;20.978;2023-05-16T02:25:27;12.10;99.90
17571;DHT22;8903;52.220;20.978;2023-05-16T02:27:54;12.10;99.90
17571;DHT22;8903;52.220;20.978;2023-05-16T02:30:22;12.00;99.90
17571;DHT22;8903;52.220;20.978;2023-05-16T02:32:50;12.10;99.90
17571;DHT22;8903;52.220;20.978;2023-05-16T02:35:18;12.10;99.90
17571;DHT22;8903;52.220;20.978;2023-05-16T02:37:45;12.10;99.90
17571;DHT22;8903;52.220;20.978;2023-05-16T02:40:12;12.10;99.90
17571;DHT22;8903;52.220;20.978;2023-05-16T02:42:40;12.10;99.90
17571;DHT22;8903;52.220;20.978;2023-05-16T02:45:08;12.10;99.90
17571;DHT22;8903;52.220;20.978;2023-05-16T02:47:35;12.10;99.90
17571;DHT22;8903;52.220;20.978;2023-05-16T02:50:05;12.00;99.90
17571;DHT22;8903;52.220;20.978;2023-05-16T02:52:33;12.10;99.90
17571;DHT22;8903;52.220;20.978;2023-05-16T02:55:00;12.00;99.90
17571;DHT22;8903;52.220;20.978;2023-05-16T02:57:27;11.90;99.90
17571;DHT22;8903;52.220;20.978;2023-05-16T02:59:54;11.90;99.90
17571;DHT22;8903;52.220;20.978;2023-05-16T03:02:21;11.80;99.90
17571;DHT22;8903;52.220;20.978;2023-05-16T03:04:48;11.80;99.90
17571;DHT22;8903;52.220;20.978;2023-05-16T03:07:17;11.80;99.90
17571;DHT22;8903;52.220;20.978;2023-05-16T03:09:44;11.70;99.90
17571;DHT22;8903;52.220;20.978;2023-05-16T03:12:10;11.70;99.90
17571;DHT22;8903;52.220;20.978;2023-05-16T03:14:37;11.70;99.90
17571;DHT22;8903;52.220;20.978;2023-05-16T03:17:04;11.60;99.90
17571;DHT22;8903;52.220;20.978;2023-05-16T03:19:34;11.60;99.90
17571;DHT22;8903;52.220;20.978;2023-05-16T03:22:01;11.60;99.90
17571;DHT22;8903;52.220;20.978;2023-05-16T03:24:30;11.60;99.90
17571;DHT22;8903;52.220;20.978;2023-05-16T03:26:57;11.60;99.90
17571;DHT22;8903;52.220;20.978;2023-05-16T03:29:24;11.60;99.90
17571;DHT22;8903;52.220;20.978;2023-05-16T03:31:51;11.60;99.90
17571;DHT22;8903;52.220;20.978;2023-05-16T03:34:19;11.60;99.90
17571;DHT22;8903;52.220;20.978;2023-05-16T03:36:48;11.70;99.90
17571;DHT22;8903;52.220;20.978;2023-05-16T03:39:15;11.60;99.90
17571;DHT22;8903;52.220;20.978;2023-05-16T03:41:44;11.70;99.90
17571;DHT22;8903;52.220;20.978;2023-05-16T03:44:10;11.70;99.90
17571;DHT22;8903;52.220;20.978;2023-05-16T03:46:37;11.70;99.90
17571;DHT22;8903;52.220;20.978;2023-05-16T03:49:04;11.70;99.90
17571;DHT22;8903;52.220;20.978;2023-05-16T03:51:31;11.60;99.90
17571;DHT22;8903;52.220;20.978;2023-05-16T03:53:58;11.60;99.90
17571;DHT22;8903;52.220;20.978;2023-05-16T03:56:25;11.60;99.90
17571;DHT22;8903;52.220;20.978;2023-05-16T03:58:54;11.70;99.90
17571;DHT22;8903;52.220;20.978;2023-05-16T04:01:20;11.70;99.90
17571;DHT22;8903;52.220;20.978;2023-05-16T04:03:48;11.70;99.90
17571;DHT22;8903;52.220;20.978;2023-05-16T04:06:15;11.70;99.90
17571;DHT22;8903;52.220;20.978;2023-05-16T04:08:42;11.70;99.90
17571;DHT22;8903;52.220;20.978;2023-05-16T04:11:09;11.70;99.90
17571;DHT22;8903;52.220;20.978;2023-05-16T04:13:36;11.70;99.90
17571;DHT22;8903;52.220;20.978;2023-05-16T04:16:06;11.70;99.90
17571;DHT22;8903;52.220;20.978;2023-05-16T04:18:33;11.70;99.90
17571;DHT22;8903;52.220;20.978;2023-05-16T04:21:00;11.70;99.90
17571;DHT22;8903;52.220;20.978;2023-05-16T04:23:27;11.80;99.90
17571;DHT22;8903;52.220;20.978;2023-05-16T04:25:54;11.80;99.90
17571;DHT22;8903;52.220;20.978;2023-05-16T04:28:21;11.90;99.90
17571;DHT22;8903;52.220;20.978;2023-05-16T04:30:48;11.90;99.90
17571;DHT22;8903;52.220;20.978;2023-05-16T04:33:17;11.90;99.90
17571;DHT22;8903;52.220;20.978;2023-05-16T04:35:44;12.00;99.90
17571;DHT22;8903;52.220;20.978;2023-05-16T04:38:11;12.10;99.90
17571;DHT22;8903;52.220;20.978;2023-05-16T04:40:38;12.10;99.90
17571;DHT22;8903;52.220;20.978;2023-05-16T04:43:06;12.20;99.90
17571;DHT22;8903;52.220;20.978;2023-05-16T04:45:33;12.30;99.90
17571;DHT22;8903;52.220;20.978;2023-05-16T04:48:00;12.30;99.90
17571;DHT22;8903;52.220;20.978;2023-05-16T04:50:29;12.40;99.90
17571;DHT22;8903;52.220;20.978;2023-05-16T04:52:56;12.50;99.90
17571;DHT22;8903;52.220;20.978;2023-05-16T04:55:22;12.50;99.90
17571;DHT22;8903;52.220;20.978;2023-05-16T04:57:50;12.60;99.90
17571;DHT22;8903;52.220;20.978;2023-05-16T05:00:17;12.70;99.90
17571;DHT22;8903;52.220;20.978;2023-05-16T05:02:44;12.80;99.90
17571;DHT22;8903;52.220;20.978;2023-05-16T05:05:11;12.90;99.90
17571;DHT22;8903;52.220;20.978;2023-05-16T05:07:39;12.90;99.90
17571;DHT22;8903;52.220;20.978;2023-05-16T05:10:08;13.00;99.90
17571;DHT22;8903;52.220;20.978;2023-05-16T05:12:36;13.10;99.90
17571;DHT22;8903;52.220;20.978;2023-05-16T05:15:04;13.20;99.90
17571;DHT22;8903;52.220;20.978;2023-05-16T05:17:34;13.20;99.90
17571;DHT22;8903;52.220;20.978;2023-05-16T05:20:02;13.30;99.90
17571;DHT22;8903;52.220;20.978;2023-05-16T05:22:31;13.40;99.90
17571;DHT22;8903;52.220;20.978;2023-05-16T05:24:59;13.40;99.90
17571;DHT22;8903;52.220;20.978;2023-05-16T05:27:26;13.50;99.90
17571;DHT22;8903;52.220;20.978;2023-05-16T05:29:53;13.50;99.90
17571;DHT22;8903;52.220;20.978;2023-05-16T05:32:20;13.60;99.90
17571;DHT22;8903;52.220;20.978;2023-05-16T05:34:47;13.70;99.90
17571;DHT22;8903;52.220;20.978;2023-05-16T05:37:14;13.70;99.90
17571;DHT22;8903;52.220;20.978;2023-05-16T05:39:41;13.70;99.90
17571;DHT22;8903;52.220;20.978;2023-05-16T05:42:09;13.70;99.90
17571;DHT22;8903;52.220;20.978;2023-05-16T05:44:37;13.80;99.90
17571;DHT22;8903;52.220;20.978;2023-05-16T05:47:05;13.80;99.90
17571;DHT22;8903;52.220;20.978;2023-05-16T05:49:32;13.90;99.90
17571;DHT22;8903;52.220;20.978;2023-05-16T05:52:00;13.80;99.90
17571;DHT22;8903;52.220;20.978;2023-05-16T05:54:27;14.00;99.90
17571;DHT22;8903;52.220;20.978;2023-05-16T05:56:55;14.00;99.90
17571;DHT22;8903;52.220;20.978;2023-05-16T05:59:23;13.90;99.90
17571;DHT22;8903;52.220;20.978;2023-05-16T06:01:50;13.90;99.90
17571;DHT22;8903;52.220;20.978;2023-05-16T06:04:17;13.90;99.90
17571;DHT22;8903;52.220;20.978;2023-05-16T06:06:44;13.90;99.90
17571;DHT22;8903;52.220;20.978;2023-05-16T06:09:11;13.90;99.90
17571;DHT22;8903;52.220;20.978;2023-05-16T06:11:39;13.80;99.90
17571;DHT22;8903;52.220;20.978;2023-05-16T06:14:06;13.80;99.90
17571;DHT22;8903;52.220;20.978;2023-05-16T06:16:35;13.80;99.90
17571;DHT22;8903;52.220;20.978;2023-05-16T06:19:04;13.80;99.90
17571;DHT22;8903;52.220;20.978;2023-05-16T06:21:30;13.80;99.90
17571;DHT22;8903;52.220;20.978;2023-05-16T06:23:58;13.70;99.90
17571;DHT22;8903;52.220;20.978;2023-05-16T06:26:25;13.70;99.90
17571;DHT22;8903;52.220;20.978;2023-05-16T06:28:52;13.80;99.90
17571;DHT22;8903;52.220;20.978;2023-05-16T06:31:19;13.80;99.90
17571;DHT22;8903;52.220;20.978;2023-05-16T06:33:47;13.80;99.90
17571;DHT22;8903;52.220;20.978;2023-05-16T06:36:14;13.70;99.90
17571;DHT22;8903;52.220;20.978;2023-05-16T06:38:41;13.70;99.90
17571;DHT22;8903;52.220;20.978;2023-05-16T06:41:08;13.80;99.90
17571;DHT22;8903;52.220;20.978;2023-05-16T06:43:35;13.70;99.90
17571;DHT22;8903;52.220;20.978;2023-05-16T06:46:02;13.60;99.90
17571;DHT22;8903;52.220;20.978;2023-05-16T06:48:29;13.60;99.90
17571;DHT22;8903;52.220;20.978;2023-05-16T06:50:57;13.50;99.90
17571;DHT22;8903;52.220;20.978;2023-05-16T06:53:24;13.40;99.90
17571;DHT22;8903;52.220;20.978;2023-05-16T06:55:52;13.40;99.90
17571;DHT22;8903;52.220;20.978;2023-05-16T06:58:19;13.50;99.90
17571;DHT22;8903;52.220;20.978;2023-05-16T07:00:47;13.50;99.90
17571;DHT22;8903;52.220;20.978;2023-05-16T07:03:14;13.60;99.90
17571;DHT22;8903;52.220;20.978;2023-05-16T07:05:41;13.70;99.90
17571;DHT22;8903;52.220;20.978;2023-05-16T07:08:10;13.60;99.90
17571;DHT22;8903;52.220;20.978;2023-05-16T07:10:37;13.60;99.90
17571;DHT22;8903;52.220;20.978;2023-05-16T07:13:05;13.50;99.90
17571;DHT22;8903;52.220;20.978;2023-05-16T07:15:32;13.50;99.90
17571;DHT22;8903;52.220;20.978;2023-05-16T07:17:59;13.40;99.90
17571;DHT22;8903;52.220;20.978;2023-05-16T07:20:26;13.50;99.90
17571;DHT22;8903;52.220;20.978;2023-05-16T07:22:53;13.60;99.90
17571;DHT22;8903;52.220;20.978;2023-05-16T07:25:23;13.60;99.90
17571;DHT22;8903;52.220;20.978;2023-05-16T07:27:50;13.70;99.90
17571;DHT22;8903;52.220;20.978;2023-05-16T07:30:17;13.70;99.90
17571;DHT22;8903;52.220;20.978;2023-05-16T07:32:45;13.80;99.90
17571;DHT22;8903;52.220;20.978;2023-05-16T07:35:12;13.80;99.90
17571;DHT22;8903;52.220;20.978;2023-05-16T07:37:39;13.80;99.90
17571;DHT22;8903;52.220;20.978;2023-05-16T07:40:08;13.90;99.90
17571;DHT22;8903;52.220;20.978;2023-05-16T07:42:36;14.00;99.90
17571;DHT22;8903;52.220;20.978;2023-05-16T07:45:04;14.00;99.90
17571;DHT22;8903;52.220;20.978;2023-05-16T07:47:32;14.10;99.90
17571;DHT22;8903;52.220;20.978;2023-05-16T07:49:58;14.30;99.90
17571;DHT22;8903;52.220;20.978;2023-05-16T07:52:25;14.40;99.90
17571;DHT22;8903;52.220;20.978;2023-05-16T07:54:53;14.50;99.90
17571;DHT22;8903;52.220;20.978;2023-05-16T07:57:20;14.60;99.90
17571;DHT22;8903;52.220;20.978;2023-05-16T07:59:49;14.70;99.90
17571;DHT22;8903;52.220;20.978;2023-05-16T08:02:17;14.70;99.90
17571;DHT22;8903;52.220;20.978;2023-05-16T08:04:44;14.70;99.90
17571;DHT22;8903;52.220;20.978;2023-05-16T08:07:11;14.60;99.90
17571;DHT22;8903;52.220;20.978;2023-05-16T08:09:38;14.70;99.90
17571;DHT22;8903;52.220;20.978;2023-05-16T08:12:06;14.60;99.90
17571;DHT22;8903;52.220;20.978;2023-05-16T08:14:33;14.70;99.90
17571;DHT22;8903;52.220;20.978;2023-05-16T08:17:03;14.70;99.90
17571;DHT22;8903;52.220;20.978;2023-05-16T08:19:30;14.70;99.90
17571;DHT22;8903;52.220;20.978;2023-05-16T08:21:57;14.70;99.90
17571;DHT22;8903;52.220;20.978;2023-05-16T08:24:24;14.70;99.90
17571;DHT22;8903;52.220;20.978;2023-05-16T08:26:51;14.70;99.90
17571;DHT22;8903;52.220;20.978;2023-05-16T08:29:18;14.80;99.90
17571;DHT22;8903;52.220;20.978;2023-05-16T08:31:45;14.90;99.90
17571;DHT22;8903;52.220;20.978;2023-05-16T08:34:14;15.00;99.90
17571;DHT22;8903;52.220;20.978;2023-05-16T08:36:41;15.10;99.90
17571;DHT22;8903;52.220;20.978;2023-05-16T08:39:08;15.10;99.90
17571;DHT22;8903;52.220;20.978;2023-05-16T08:41:36;15.20;99.90
17571;DHT22;8903;52.220;20.978;2023-05-16T08:44:03;15.20;99.90
17571;DHT22;8903;52.220;20.978;2023-05-16T08:46:32;15.40;99.90
17571;DHT22;8903;52.220;20.978;2023-05-16T08:49:00;15.50;99.90
17571;DHT22;8903;52.220;20.978;2023-05-16T08:51:32;15.60;99.90
17571;DHT22;8903;52.220;20.978;2023-05-16T08:54:03;15.60;99.90
17571;DHT22;8903;52.220;20.978;2023-05-16T08:56:33;15.70;99.90
17571;DHT22;8903;52.220;20.978;2023-05-16T08:59:01;15.80;99.90
17571;DHT22;8903;52.220;20.978;2023-05-16T09:01:29;15.80;99.90
17571;DHT22;8903;52.220;20.978;2023-05-16T09:03:57;15.60;99.90
17571;DHT22;8903;52.220;20.978;2023-05-16T09:06:24;15.40;99.90
17571;DHT22;8903;52.220;20.978;2023-05-16T09:08:53;15.30;99.90
17571;DHT22;8903;52.220;20.978;2023-05-16T09:11:20;15.50;99.90
17571;DHT22;8903;52.220;20.978;2023-05-16T09:13:47;15.70;99.90
17571;DHT22;8903;52.220;20.978;2023-05-16T09:16:16;15.80;99.90
17571;DHT22;8903;52.220;20.978;2023-05-16T09:18:45;15.80;99.90
17571;DHT22;8903;52.220;20.978;2023-05-16T09:21:12;15.90;99.90
17571;DHT22;8903;52.220;20.978;2023-05-16T09:23:41;15.90;99.90
17571;DHT22;8903;52.220;20.978;2023-05-16T09:26:11;15.90;99.90
17571;DHT22;8903;52.220;20.978;2023-05-16T09:28:38;16.10;99.90
17571;DHT22;8903;52.220;20.978;2023-05-16T09:31:19;16.20;99.90
17571;DHT22;8903;52.220;20.978;2023-05-16T09:33:46;16.00;99.90
17571;DHT22;8903;52.220;20.978;2023-05-16T09:36:14;16.10;99.90
17571;DHT22;8903;52.220;20.978;2023-05-16T09:38:41;16.30;99.90
17571;DHT22;8903;52.220;20.978;2023-05-16T09:41:10;16.50;99.90
17571;DHT22;8903;52.220;20.978;2023-05-16T09:43:38;16.60;99.90
17571;DHT22;8903;52.220;20.978;2023-05-16T09:46:05;16.60;99.90
17571;DHT22;8903;52.220;20.978;2023-05-16T09:48:32;16.60;99.90
17571;DHT22;8903;52.220;20.978;2023-05-16T09:51:00;16.70;99.90
17571;DHT22;8903;52.220;20.978;2023-05-16T09:53:32;16.70;99.90
17571;DHT22;8903;52.220;20.978;2023-05-16T09:56:03;16.70;99.90
17571;DHT22;8903;52.220;20.978;2023-05-16T09:58:32;16.70;99.90
17571;DHT22;8903;52.220;20.978;2023-05-16T10:01:00;16.70;99.90
17571;DHT22;8903;52.220;20.978;2023-05-16T10:03:28;16.60;99.90
17571;DHT22;8903;52.220;20.978;2023-05-16T10:05:55;16.70;99.90
17571;DHT22;8903;52.220;20.978;2023-05-16T10:08:23;16.80;99.90
17571;DHT22;8903;52.220;20.978;2023-05-16T10:10:52;16.70;99.90
17571;DHT22;8903;52.220;20.978;2023-05-16T10:13:20;16.60;99.90
17571;DHT22;8903;52.220;20.978;2023-05-16T10:15:49;16.40;99.90
17571;DHT22;8903;52.220;20.978;2023-05-16T10:18:17;16.30;99.90
17571;DHT22;8903;52.220;20.978;2023-05-16T10:20:46;16.40;99.90
17571;DHT22;8903;52.220;20.978;2023-05-16T10:23:17;16.40;99.90
17571;DHT22;8903;52.220;20.978;2023-05-16T10:25:45;16.50;99.90
17571;DHT22;8903;52.220;20.978;2023-05-16T10:28:13;16.40;99.90
17571;DHT22;8903;52.220;20.978;2023-05-16T10:30:42;16.40;99.90
17571;DHT22;8903;52.220;20.978;2023-05-16T10:33:11;16.40;99.90
17571;DHT22;8903;52.220;20.978;2023-05-16T10:35:39;16.50;99.90
17571;DHT22;8903;52.220;20.978;2023-05-16T10:38:07;16.40;99.90
17571;DHT22;8903;52.220;20.978;2023-05-16T10:40:36;16.40;99.90
17571;DHT22;8903;52.220;20.978;2023-05-16T10:43:05;16.40;99.90
17571;DHT22;8903;52.220;20.978;2023-05-16T10:45:33;16.30;99.90
17571;DHT22;8903;52.220;20.978;2023-05-16T10:48:02;16.30;99.90
17571;DHT22;8903;52.220;20.978;2023-05-16T10:50:33;16.40;99.90
17571;DHT22;8903;52.220;20.978;2023-05-16T10:53:19;16.40;99.90
17571;DHT22;8903;52.220;20.978;2023-05-16T10:56:04;16.50;99.90
17571;DHT22;8903;52.220;20.978;2023-05-16T10:58:46;16.60;99.90
17571;DHT22;8903;52.220;20.978;2023-05-16T11:01:19;16.70;99.90
17571;DHT22;8903;52.220;20.978;2023-05-16T11:04:06;16.90;99.90
17571;DHT22;8903;52.220;20.978;2023-05-16T11:06:49;17.00;99.90
17571;DHT22;8903;52.220;20.978;2023-05-16T11:09:21;17.00;99.90
17571;DHT22;8903;52.220;20.978;2023-05-16T11:12:08;17.10;99.90
17571;DHT22;8903;52.220;20.978;2023-05-16T11:14:38;17.30;99.90
17571;DHT22;8903;52.220;20.978;2023-05-16T11:17:09;17.50;99.90
17571;DHT22;8903;52.220;20.978;2023-05-16T11:19:42;17.50;99.90
17571;DHT22;8903;52.220;20.978;2023-05-16T11:22:21;17.60;99.90
17571;DHT22;8903;52.220;20.978;2023-05-16T11:24:51;17.70;99.90
17571;DHT22;8903;52.220;20.978;2023-05-16T11:27:23;17.70;99.90
17571;DHT22;8903;52.220;20.978;2023-05-16T11:29:51;17.70;99.90
17571;DHT22;8903;52.220;20.978;2023-05-16T11:32:19;17.50;99.90
17571;DHT22;8903;52.220;20.978;2023-05-16T11:34:48;17.50;99.90
17571;DHT22;8903;52.220;20.978;2023-05-16T11:37:17;17.40;99.90
17571;DHT22;8903;52.220;20.978;2023-05-16T11:39:45;17.50;99.90
17571;DHT22;8903;52.220;20.978;2023-05-16T11:42:13;17.60;99.90
17571;DHT22;8903;52.220;20.978;2023-05-16T11:44:40;17.80;99.90
17571;DHT22;8903;52.220;20.978;2023-05-16T11:47:07;18.00;99.90
17571;DHT22;8903;52.220;20.978;2023-05-16T11:49:34;18.10;99.90
17571;DHT22;8903;52.220;20.978;2023-05-16T11:52:01;18.10;99.90
17571;DHT22;8903;52.220;20.978;2023-05-16T11:54:30;18.10;99.90
17571;DHT22;8903;52.220;20.978;2023-05-16T11:56:59;18.20;99.90
17571;DHT22;8903;52.220;20.978;2023-05-16T11:59:27;18.10;99.90
17571;DHT22;8903;52.220;20.978;2023-05-16T12:01:54;18.40;99.90
17571;DHT22;8903;52.220;20.978;2023-05-16T12:04:21;18.70;99.90
17571;DHT22;8903;52.220;20.978;2023-05-16T12:06:58;18.90;99.90
17571;DHT22;8903;52.220;20.978;2023-05-16T12:09:26;19.00;99.90
17571;DHT22;8903;52.220;20.978;2023-05-16T12:11:54;19.10;99.90
17571;DHT22;8903;52.220;20.978;2023-05-16T12:14:22;19.10;99.90
17571;DHT22;8903;52.220;20.978;2023-05-16T12:16:51;19.10;99.90
17571;DHT22;8903;52.220;20.978;2023-05-16T12:19:19;19.30;99.90
17571;DHT22;8903;52.220;20.978;2023-05-16T12:21:46;19.50;99.90
17571;DHT22;8903;52.220;20.978;2023-05-16T12:24:13;20.10;99.90
17571;DHT22;8903;52.220;20.978;2023-05-16T12:26:41;20.50;99.90
17571;DHT22;8903;52.220;20.978;2023-05-16T12:29:10;20.40;99.90
17571;DHT22;8903;52.220;20.978;2023-05-16T12:31:39;20.40;99.90
17571;DHT22;8903;52.220;20.978;2023-05-16T12:34:16;20.00;99.90
17571;DHT22;8903;52.220;20.978;2023-05-16T12:36:43;19.80;99.90
17571;DHT22;8903;52.220;20.978;2023-05-16T12:39:11;19.60;99.90
17571;DHT22;8903;52.220;20.978;2023-05-16T12:41:40;19.30;99.90
17571;DHT22;8903;52.220;20.978;2023-05-16T12:44:13;18.90;99.90
17571;DHT22;8903;52.220;20.978;2023-05-16T12:46:43;18.80;99.90
17571;DHT22;8903;52.220;20.978;2023-05-16T12:49:11;18.60;99.90
17571;DHT22;8903;52.220;20.978;2023-05-16T12:51:38;18.30;99.90
17571;DHT22;8903;52.220;20.978;2023-05-16T12:54:10;18.20;99.90
17571;DHT22;8903;52.220;20.978;2023-05-16T12:56:38;18.10;99.90
17571;DHT22;8903;52.220;20.978;2023-05-16T12:59:05;18.20;99.90
17571;DHT22;8903;52.220;20.978;2023-05-16T13:01:34;18.40;99.90
17571;DHT22;8903;52.220;20.978;2023-05-16T13:04:02;18.70;99.90
17571;DHT22;8903;52.220;20.978;2023-05-16T13:06:29;19.00;99.90
17571;DHT22;8903;52.220;20.978;2023-05-16T13:08:56;19.20;99.90
17571;DHT22;8903;52.220;20.978;2023-05-16T13:11:23;19.20;99.90
17571;DHT22;8903;52.220;20.978;2023-05-16T13:13:51;18.90;99.90
17571;DHT22;8903;52.220;20.978;2023-05-16T13:16:18;18.80;99.90
17571;DHT22;8903;52.220;20.978;2023-05-16T13:18:46;18.80;99.90
17571;DHT22;8903;52.220;20.978;2023-05-16T13:21:13;18.70;99.90
17571;DHT22;8903;52.220;20.978;2023-05-16T13:23:40;18.80;99.90
17571;DHT22;8903;52.220;20.978;2023-05-16T13:26:07;19.00;99.90
17571;DHT22;8903;52.220;20.978;2023-05-16T13:28:35;19.10;99.90
17571;DHT22;8903;52.220;20.978;2023-05-16T13:31:02;19.30;99.90
17571;DHT22;8903;52.220;20.978;2023-05-16T13:33:30;19.50;99.90
17571;DHT22;8903;52.220;20.978;2023-05-16T13:35:58;19.80;99.90
17571;DHT22;8903;52.220;20.978;2023-05-16T13:38:25;20.00;99.90
17571;DHT22;8903;52.220;20.978;2023-05-16T13:40:52;20.10;99.90
17571;DHT22;8903;52.220;20.978;2023-05-16T13:43:19;20.20;99.90
17571;DHT22;8903;52.220;20.978;2023-05-16T13:45:46;20.20;99.90
17571;DHT22;8903;52.220;20.978;2023-05-16T13:48:13;20.20;99.90
17571;DHT22;8903;52.220;20.978;2023-05-16T13:50:40;20.30;99.90
17571;DHT22;8903;52.220;20.978;2023-05-16T13:53:08;20.30;99.90
17571;DHT22;8903;52.220;20.978;2023-05-16T13:55:35;20.10;99.90
17571;DHT22;8903;52.220;20.978;2023-05-16T13:58:02;20.30;99.90
17571;DHT22;8903;52.220;20.978;2023-05-16T14:00:29;20.50;99.90
17571;DHT22;8903;52.220;20.978;2023-05-16T14:02:56;20.70;99.90
17571;DHT22;8903;52.220;20.978;2023-05-16T14:05:23;20.70;99.90
17571;DHT22;8903;52.220;20.978;2023-05-16T14:07:50;20.60;99.90
17571;DHT22;8903;52.220;20.978;2023-05-16T14:10:19;20.70;99.90
17571;DHT22;8903;52.220;20.978;2023-05-16T14:12:46;20.70;99.90
17571;DHT22;8903;52.220;20.978;2023-05-16T14:15:13;20.80;99.90
17571;DHT22;8903;52.220;20.978;2023-05-16T14:17:40;20.60;99.90
17571;DHT22;8903;52.220;20.978;2023-05-16T14:20:08;20.80;99.90
17571;DHT22;8903;52.220;20.978;2023-05-16T14:22:36;20.70;99.80
17571;DHT22;8903;52.220;20.978;2023-05-16T14:25:04;20.60;99.90
17571;DHT22;8903;52.220;20.978;2023-05-16T14:27:33;20.60;99.90
17571;DHT22;8903;52.220;20.978;2023-05-16T14:30:00;20.50;99.60
17571;DHT22;8903;52.220;20.978;2023-05-16T14:32:27;20.20;99.90
17571;DHT22;8903;52.220;20.978;2023-05-16T14:34:54;19.80;99.90
17571;DHT22;8903;52.220;20.978;2023-05-16T14:37:21;19.60;99.90
17571;DHT22;8903;52.220;20.978;2023-05-16T14:39:48;19.60;99.90
17571;DHT22;8903;52.220;20.978;2023-05-16T14:42:15;19.50;99.90
17571;DHT22;8903;52.220;20.978;2023-05-16T14:44:45;19.30;99.90
17571;DHT22;8903;52.220;20.978;2023-05-16T14:47:11;19.40;99.90
17571;DHT22;8903;52.220;20.978;2023-05-16T14:49:39;19.30;99.90
17571;DHT22;8903;52.220;20.978;2023-05-16T14:52:06;19.20;99.90
17571;DHT22;8903;52.220;20.978;2023-05-16T14:54:33;19.00;99.90
17571;DHT22;8903;52.220;20.978;2023-05-16T14:57:00;19.10;99.90
17571;DHT22;8903;52.220;20.978;2023-05-16T14:59:28;19.20;99.90
17571;DHT22;8903;52.220;20.978;2023-05-16T15:01:57;19.40;99.90
17571;DHT22;8903;52.220;20.978;2023-05-16T15:04:25;19.50;99.90
17571;DHT22;8903;52.220;20.978;2023-05-16T15:06:52;19.60;99.90
17571;DHT22;8903;52.220;20.978;2023-05-16T15:09:19;19.60;99.90
17571;DHT22;8903;52.220;20.978;2023-05-16T15:11:46;19.60;99.90
17571;DHT22;8903;52.220;20.978;2023-05-16T15:14:13;19.60;99.90
17571;DHT22;8903;52.220;20.978;2023-05-16T15:16:40;19.70;99.90
17571;DHT22;8903;52.220;20.978;2023-05-16T15:19:08;19.70;99.90
17571;DHT22;8903;52.220;20.978;2023-05-16T15:21:35;19.70;99.90
17571;DHT22;8903;52.220;20.978;2023-05-16T15:24:02;19.70;99.90
17571;DHT22;8903;52.220;20.978;2023-05-16T15:26:29;19.70;99.90
17571;DHT22;8903;52.220;20.978;2023-05-16T15:28:57;19.80;99.90
17571;DHT22;8903;52.220;20.978;2023-05-16T15:31:24;19.80;99.90
17571;DHT22;8903;52.220;20.978;2023-05-16T15:33:51;19.80;99.90
17571;DHT22;8903;52.220;20.978;2023-05-16T15:36:19;19.90;99.90
17571;DHT22;8903;52.220;20.978;2023-05-16T15:38:46;20.00;99.90
17571;DHT22;8903;52.220;20.978;2023-05-16T15:41:13;19.80;99.90